sensor_id;sensor_type;location;lat;lon;timestamp;temperature;humidity
21331;DHT22;10824;51.632;4.950;2024-02-21T00:00:34;9.70;99.90
21331;DHT22;10824;51.632;4.950;2024-02-21T00:03:01;9.70;99.90
21331;DHT22;10824;51.632;4.950;2024-02-21T00:05:31;9.70;99.90
21331;DHT22;10824;51.632;4.950;2024-02-21T00:08:02;9.70;69.30
21331;DHT22;10824;51.632;4.950;2024-02-21T00:10:30;9.70;99.90
21331;DHT22;10824;51.632;4.950;2024-02-21T00:12:59;9.70;99.90
21331;DHT22;10824;51.632;4.950;2024-02-21T00:15:28;9.70;99.90
21331;DHT22;10824;51.632;4.950;2024-02-21T00:17:55;9.70;1.00
21331;DHT22;10824;51.632;4.950;2024-02-21T00:20:24;9.60;1.00
21331;DHT22;10824;51.632;4.950;2024-02-21T00:22:53;9.60;1.00
21331;DHT22;10824;51.632;4.950;2024-02-21T00:25:20;9.50;1.00
21331;DHT22;10824;51.632;4.950;2024-02-21T00:27:47;9.50;99.90
21331;DHT22;10824;51.632;4.950;2024-02-21T00:30:14;9.40;65.90
21331;DHT22;10824;51.632;4.950;2024-02-21T00:32:41;9.40;53.60
21331;DHT22;10824;51.632;4.950;2024-02-21T00:35:08;9.40;78.90
21331;DHT22;10824;51.632;4.950;2024-02-21T00:37:36;9.40;88.50
21331;DHT22;10824;51.632;4.950;2024-02-21T00:40:03;9.40;31.60
21331;DHT22;10824;51.632;4.950;2024-02-21T00:42:33;9.40;10.60
21331;DHT22;10824;51.632;4.950;2024-02-21T00:45:00;9.40;1.00
21331;DHT22;10824;51.632;4.950;2024-02-21T00:47:27;9.30;1.00
21331;DHT22;10824;51.632;4.950;2024-02-21T00:49:55;9.40;55.30
21331;DHT22;10824;51.632;4.950;2024-02-21T00:52:22;9.40;99.90
21331;DHT22;10824;51.632;4.950;2024-02-21T00:54:50;9.40;99.90
21331;DHT22;10824;51.632;4.950;2024-02-21T00:57:20;9.40;99.90
21331;DHT22;10824;51.632;4.950;2024-02-21T00:59:48;9.30;99.90
21331;DHT22;10824;51.632;4.950;2024-02-21T01:02:15;9.30;99.90
21331;DHT22;10824;51.632;4.950;2024-02-21T01:04:42;9.30;99.90
21331;DHT22;10824;51.632;4.950;2024-02-21T01:07:10;9.30;1.00
21331;DHT22;10824;51.632;4.950;2024-02-21T01:09:37;9.40;1.00
21331;DHT22;10824;51.632;4.950;2024-02-21T01:12:04;9.40;99.90
21331;DHT22;10824;51.632;4.950;2024-02-21T01:14:31;9.40;1.00
21331;DHT22;10824;51.632;4.950;2024-02-21T01:16:58;9.30;1.00
21331;DHT22;10824;51.632;4.950;2024-02-21T01:19:26;9.30;1.00
21331;DHT22;10824;51.632;4.950;2024-02-21T01:21:53;9.30;1.00
21331;DHT22;10824;51.632;4.950;2024-02-21T01:24:21;9.30;1.00
21331;DHT22;10824;51.632;4.950;2024-02-21T01:26:48;9.30;1.00
21331;DHT22;10824;51.632;4.950;2024-02-21T01:29:15;9.30;1.00
21331;DHT22;10824;51.632;4.950;2024-02-21T01:31:42;9.30;1.00
21331;DHT22;10824;51.632;4.950;2024-02-21T01:34:10;9.30;1.00
21331;DHT22;10824;51.632;4.950;2024-02-21T01:36:37;9.30;1.00
21331;DHT22;10824;51.632;4.950;2024-02-21T01:39:04;9.30;1.00
21331;DHT22;10824;51.632;4.950;2024-02-21T01:41:32;9.30;1.00
21331;DHT22;10824;51.632;4.950;2024-02-21T01:43:59;9.30;1.00
21331;DHT22;10824;51.632;4.950;2024-02-21T01:46:26;9.30;1.00
21331;DHT22;10824;51.632;4.950;2024-02-21T01:48:56;9.30;1.00
21331;DHT22;10824;51.632;4.950;2024-02-21T01:51:24;9.30;1.00
21331;DHT22;10824;51.632;4.950;2024-02-21T01:53:53;9.30;1.00
21331;DHT22;10824;51.632;4.950;2024-02-21T01:56:22;9.30;1.00
21331;DHT22;10824;51.632;4.950;2024-02-21T01:58:51;9.30;1.00
21331;DHT22;10824;51.632;4.950;2024-02-21T02:01:18;9.30;1.00
21331;DHT22;10824;51.632;4.950;2024-02-21T02:03:48;9.30;1.00
21331;DHT22;10824;51.632;4.950;2024-02-21T02:06:16;9.30;1.00
21331;DHT22;10824;51.632;4.950;2024-02-21T02:08:44;9.30;1.00
21331;DHT22;10824;51.632;4.950;2024-02-21T02:11:13;9.30;1.00
21331;DHT22;10824;51.632;4.950;2024-02-21T02:13:41;9.20;54.90
21331;DHT22;10824;51.632;4.950;2024-02-21T02:16:08;9.20;99.90
21331;DHT22;10824;51.632;4.950;2024-02-21T02:18:36;9.20;99.90
21331;DHT22;10824;51.632;4.950;2024-02-21T02:21:15;9.20;99.90
21331;DHT22;10824;51.632;4.950;2024-02-21T02:23:47;9.20;99.90
21331;DHT22;10824;51.632;4.950;2024-02-21T02:26:14;9.20;99.90
21331;DHT22;10824;51.632;4.950;2024-02-21T02:28:41;9.10;99.90
21331;DHT22;10824;51.632;4.950;2024-02-21T02:31:08;9.10;99.90
21331;DHT22;10824;51.632;4.950;2024-02-21T02:33:35;9.10;99.90
21331;DHT22;10824;51.632;4.950;2024-02-21T02:36:03;9.00;1.00
21331;DHT22;10824;51.632;4.950;2024-02-21T02:38:30;9.10;1.00
21331;DHT22;10824;51.632;4.950;2024-02-21T02:40:57;9.10;1.00
21331;DHT22;10824;51.632;4.950;2024-02-21T02:43:24;9.00;1.00
21331;DHT22;10824;51.632;4.950;2024-02-21T02:45:51;9.00;1.00
21331;DHT22;10824;51.632;4.950;2024-02-21T02:48:18;9.10;18.30
21331;DHT22;10824;51.632;4.950;2024-02-21T02:50:47;9.00;78.30
21331;DHT22;10824;51.632;4.950;2024-02-21T02:53:14;9.00;99.90
21331;DHT22;10824;51.632;4.950;2024-02-21T02:55:41;9.00;99.90
21331;DHT22;10824;51.632;4.950;2024-02-21T02:58:08;9.00;99.90
21331;DHT22;10824;51.632;4.950;2024-02-21T03:00:38;9.00;99.90
21331;DHT22;10824;51.632;4.950;2024-02-21T03:03:06;9.00;99.90
21331;DHT22;10824;51.632;4.950;2024-02-21T03:05:35;9.00;99.90
21331;DHT22;10824;51.632;4.950;2024-02-21T03:08:02;9.00;99.90
21331;DHT22;10824;51.632;4.950;2024-02-21T03:10:34;9.00;99.90
21331;DHT22;10824;51.632;4.950;2024-02-21T03:13:01;9.00;99.90
21331;DHT22;10824;51.632;4.950;2024-02-21T03:15:28;9.00;1.00
21331;DHT22;10824;51.632;4.950;2024-02-21T03:17:55;9.00;1.00
21331;DHT22;10824;51.632;4.950;2024-02-21T03:20:22;9.00;1.00
21331;DHT22;10824;51.632;4.950;2024-02-21T03:22:50;9.00;1.00
21331;DHT22;10824;51.632;4.950;2024-02-21T03:25:17;9.00;1.00
21331;DHT22;10824;51.632;4.950;2024-02-21T03:27:44;9.00;1.00
21331;DHT22;10824;51.632;4.950;2024-02-21T03:30:12;9.00;1.00
21331;DHT22;10824;51.632;4.950;2024-02-21T03:32:39;9.00;1.00
21331;DHT22;10824;51.632;4.950;2024-02-21T03:35:07;9.00;1.00
21331;DHT22;10824;51.632;4.950;2024-02-21T03:37:34;8.90;1.00
21331;DHT22;10824;51.632;4.950;2024-02-21T03:40:01;8.90;1.00
21331;DHT22;10824;51.632;4.950;2024-02-21T03:42:29;8.90;1.00
21331;DHT22;10824;51.632;4.950;2024-02-21T03:44:58;8.90;1.00
21331;DHT22;10824;51.632;4.950;2024-02-21T03:47:26;8.80;81.10
21331;DHT22;10824;51.632;4.950;2024-02-21T03:49:53;8.90;99.90
21331;DHT22;10824;51.632;4.950;2024-02-21T03:52:20;8.90;99.90
21331;DHT22;10824;51.632;4.950;2024-02-21T03:54:47;8.80;99.90
21331;DHT22;10824;51.632;4.950;2024-02-21T03:57:15;8.80;1.00
21331;DHT22;10824;51.632;4.950;2024-02-21T03:59:42;8.80;1.00
21331;DHT22;10824;51.632;4.950;2024-02-21T04:02:10;8.80;1.00
21331;DHT22;10824;51.632;4.950;2024-02-21T04:04:42;8.80;1.00
21331;DHT22;10824;51.632;4.950;2024-02-21T04:07:10;8.80;44.80
21331;DHT22;10824;51.632;4.950;2024-02-21T04:09:37;8.80;99.90
21331;DHT22;10824;51.632;4.950;2024-02-21T04:12:05;8.80;99.90
21331;DHT22;10824;51.632;4.950;2024-02-21T04:14:32;8.80;99.90
21331;DHT22;10824;51.632;4.950;2024-02-21T04:16:59;8.80;99.90
21331;DHT22;10824;51.632;4.950;2024-02-21T04:19:26;8.70;1.00
21331;DHT22;10824;51.632;4.950;2024-02-21T04:21:53;8.70;1.00
21331;DHT22;10824;51.632;4.950;2024-02-21T04:24:21;8.70;1.00
21331;DHT22;10824;51.632;4.950;2024-02-21T04:26:48;8.70;1.00
21331;DHT22;10824;51.632;4.950;2024-02-21T04:29:15;8.70;1.00
21331;DHT22;10824;51.632;4.950;2024-02-21T04:31:42;8.70;1.00
21331;DHT22;10824;51.632;4.950;2024-02-21T04:34:09;8.70;46.90
21331;DHT22;10824;51.632;4.950;2024-02-21T04:36:36;8.70;91.40
21331;DHT22;10824;51.632;4.950;2024-02-21T04:39:04;8.70;99.90
21331;DHT22;10824;51.632;4.950;2024-02-21T04:41:31;8.70;99.90
21331;DHT22;10824;51.632;4.950;2024-02-21T04:43:58;8.70;99.90
21331;DHT22;10824;51.632;4.950;2024-02-21T04:46:25;8.70;99.90
21331;DHT22;10824;51.632;4.950;2024-02-21T04:48:53;8.70;99.90
21331;DHT22;10824;51.632;4.950;2024-02-21T04:51:20;8.70;99.90
21331;DHT22;10824;51.632;4.950;2024-02-21T04:53:47;8.70;99.90
21331;DHT22;10824;51.632;4.950;2024-02-21T04:56:14;8.70;99.90
21331;DHT22;10824;51.632;4.950;2024-02-21T04:58:41;8.60;99.90
21331;DHT22;10824;51.632;4.950;2024-02-21T05:01:08;8.60;99.90
21331;DHT22;10824;51.632;4.950;2024-02-21T05:03:35;8.70;99.90
21331;DHT22;10824;51.632;4.950;2024-02-21T05:06:03;8.60;99.90
21331;DHT22;10824;51.632;4.950;2024-02-21T05:08:30;8.70;99.90
21331;DHT22;10824;51.632;4.950;2024-02-21T05:10:57;8.70;99.90
21331;DHT22;10824;51.632;4.950;2024-02-21T05:13:24;8.60;99.90
21331;DHT22;10824;51.632;4.950;2024-02-21T05:15:52;8.60;99.90
21331;DHT22;10824;51.632;4.950;2024-02-21T05:18:19;8.60;99.90
21331;DHT22;10824;51.632;4.950;2024-02-21T05:20:47;8.60;99.90
21331;DHT22;10824;51.632;4.950;2024-02-21T05:23:14;8.60;99.90
21331;DHT22;10824;51.632;4.950;2024-02-21T05:25:41;8.60;99.90
21331;DHT22;10824;51.632;4.950;2024-02-21T05:28:08;8.60;99.90
21331;DHT22;10824;51.632;4.950;2024-02-21T05:30:36;8.70;99.90
21331;DHT22;10824;51.632;4.950;2024-02-21T05:33:06;8.60;99.90
21331;DHT22;10824;51.632;4.950;2024-02-21T05:35:34;8.60;99.90
21331;DHT22;10824;51.632;4.950;2024-02-21T05:38:02;8.60;99.90
21331;DHT22;10824;51.632;4.950;2024-02-21T05:40:33;8.60;99.90
21331;DHT22;10824;51.632;4.950;2024-02-21T05:43:00;8.60;99.90
21331;DHT22;10824;51.632;4.950;2024-02-21T05:45:29;8.60;99.90
21331;DHT22;10824;51.632;4.950;2024-02-21T05:47:56;8.60;99.90
21331;DHT22;10824;51.632;4.950;2024-02-21T05:50:24;8.60;99.90
21331;DHT22;10824;51.632;4.950;2024-02-21T05:52:52;8.60;70.10
21331;DHT22;10824;51.632;4.950;2024-02-21T05:55:19;8.60;24.00
21331;DHT22;10824;51.632;4.950;2024-02-21T05:57:46;8.60;18.00
21331;DHT22;10824;51.632;4.950;2024-02-21T06:00:14;8.50;1.00
21331;DHT22;10824;51.632;4.950;2024-02-21T06:02:42;8.50;1.00
21331;DHT22;10824;51.632;4.950;2024-02-21T06:05:09;8.50;1.00
21331;DHT22;10824;51.632;4.950;2024-02-21T06:07:36;8.50;1.00
21331;DHT22;10824;51.632;4.950;2024-02-21T06:10:03;8.50;1.00
21331;DHT22;10824;51.632;4.950;2024-02-21T06:12:30;8.50;1.00
21331;DHT22;10824;51.632;4.950;2024-02-21T06:14:57;8.50;1.00
21331;DHT22;10824;51.632;4.950;2024-02-21T06:17:24;8.50;1.00
21331;DHT22;10824;51.632;4.950;2024-02-21T06:19:52;8.50;1.00
21331;DHT22;10824;51.632;4.950;2024-02-21T06:22:19;8.60;1.00
21331;DHT22;10824;51.632;4.950;2024-02-21T06:24:46;8.60;1.00
21331;DHT22;10824;51.632;4.950;2024-02-21T06:27:13;8.60;99.90
21331;DHT22;10824;51.632;4.950;2024-02-21T06:29:43;8.50;99.90
21331;DHT22;10824;51.632;4.950;2024-02-21T06:32:13;8.60;1.00
21331;DHT22;10824;51.632;4.950;2024-02-21T06:34:40;8.50;1.00
21331;DHT22;10824;51.632;4.950;2024-02-21T06:37:07;8.50;1.00
21331;DHT22;10824;51.632;4.950;2024-02-21T06:39:34;8.60;1.00
21331;DHT22;10824;51.632;4.950;2024-02-21T06:42:04;8.60;1.00
21331;DHT22;10824;51.632;4.950;2024-02-21T06:44:31;8.60;1.00
21331;DHT22;10824;51.632;4.950;2024-02-21T06:47:02;8.60;1.00
21331;DHT22;10824;51.632;4.950;2024-02-21T06:49:29;8.60;1.00
21331;DHT22;10824;51.632;4.950;2024-02-21T06:51:56;8.60;99.90
21331;DHT22;10824;51.632;4.950;2024-02-21T06:54:23;8.60;1.00
21331;DHT22;10824;51.632;4.950;2024-02-21T06:56:51;8.60;99.90
21331;DHT22;10824;51.632;4.950;2024-02-21T06:59:18;8.60;99.90
21331;DHT22;10824;51.632;4.950;2024-02-21T07:01:49;8.60;99.90
21331;DHT22;10824;51.632;4.950;2024-02-21T07:04:17;8.60;99.90
21331;DHT22;10824;51.632;4.950;2024-02-21T07:06:44;8.60;99.90
21331;DHT22;10824;51.632;4.950;2024-02-21T07:09:11;8.60;99.90
21331;DHT22;10824;51.632;4.950;2024-02-21T07:11:38;8.60;99.90
21331;DHT22;10824;51.632;4.950;2024-02-21T07:14:05;8.60;11.00
21331;DHT22;10824;51.632;4.950;2024-02-21T07:16:33;8.60;1.00
21331;DHT22;10824;51.632;4.950;2024-02-21T07:19:00;8.60;1.00
21331;DHT22;10824;51.632;4.950;2024-02-21T07:21:27;8.60;1.00
21331;DHT22;10824;51.632;4.950;2024-02-21T07:23:54;8.60;1.00
21331;DHT22;10824;51.632;4.950;2024-02-21T07:26:22;8.60;1.00
21331;DHT22;10824;51.632;4.950;2024-02-21T07:28:49;8.60;1.00
21331;DHT22;10824;51.632;4.950;2024-02-21T07:31:16;8.60;1.00
21331;DHT22;10824;51.632;4.950;2024-02-21T07:33:44;8.60;1.00
21331;DHT22;10824;51.632;4.950;2024-02-21T07:36:11;8.60;1.00
21331;DHT22;10824;51.632;4.950;2024-02-21T07:38:39;8.60;1.00
21331;DHT22;10824;51.632;4.950;2024-02-21T07:41:06;8.60;1.00
21331;DHT22;10824;51.632;4.950;2024-02-21T07:43:33;8.70;1.00
21331;DHT22;10824;51.632;4.950;2024-02-21T07:46:00;8.70;1.00
21331;DHT22;10824;51.632;4.950;2024-02-21T07:48:27;8.70;99.90
21331;DHT22;10824;51.632;4.950;2024-02-21T07:50:57;8.70;99.90
21331;DHT22;10824;51.632;4.950;2024-02-21T07:53:24;8.70;99.90
21331;DHT22;10824;51.632;4.950;2024-02-21T07:55:51;8.70;99.90
21331;DHT22;10824;51.632;4.950;2024-02-21T07:58:18;8.70;99.90
21331;DHT22;10824;51.632;4.950;2024-02-21T08:00:46;8.70;99.90
21331;DHT22;10824;51.632;4.950;2024-02-21T08:03:13;8.70;99.90
21331;DHT22;10824;51.632;4.950;2024-02-21T08:05:42;8.70;99.90
21331;DHT22;10824;51.632;4.950;2024-02-21T08:08:09;8.80;99.90
21331;DHT22;10824;51.632;4.950;2024-02-21T08:10:36;8.70;99.90
21331;DHT22;10824;51.632;4.950;2024-02-21T08:13:03;8.70;99.90
21331;DHT22;10824;51.632;4.950;2024-02-21T08:15:30;8.70;99.90
21331;DHT22;10824;51.632;4.950;2024-02-21T08:17:57;8.70;1.00
21331;DHT22;10824;51.632;4.950;2024-02-21T08:20:28;8.70;1.00
21331;DHT22;10824;51.632;4.950;2024-02-21T08:22:55;8.80;1.00
21331;DHT22;10824;51.632;4.950;2024-02-21T08:25:22;8.80;1.00
21331;DHT22;10824;51.632;4.950;2024-02-21T08:27:49;8.80;1.00
21331;DHT22;10824;51.632;4.950;2024-02-21T08:30:18;8.80;1.00
21331;DHT22;10824;51.632;4.950;2024-02-21T08:32:45;8.80;1.00
21331;DHT22;10824;51.632;4.950;2024-02-21T08:35:13;8.80;1.00
21331;DHT22;10824;51.632;4.950;2024-02-21T08:37:40;8.80;1.00
21331;DHT22;10824;51.632;4.950;2024-02-21T08:40:08;8.90;1.00
21331;DHT22;10824;51.632;4.950;2024-02-21T08:42:36;8.90;1.00
21331;DHT22;10824;51.632;4.950;2024-02-21T08:45:05;8.90;1.00
21331;DHT22;10824;51.632;4.950;2024-02-21T08:47:33;9.00;99.90
21331;DHT22;10824;51.632;4.950;2024-02-21T08:50:00;9.00;99.90
21331;DHT22;10824;51.632;4.950;2024-02-21T08:52:41;9.00;81.70
21331;DHT22;10824;51.632;4.950;2024-02-21T08:55:09;9.00;25.80
21331;DHT22;10824;51.632;4.950;2024-02-21T08:57:36;9.00;8.30
21331;DHT22;10824;51.632;4.950;2024-02-21T09:00:04;9.00;1.00
21331;DHT22;10824;51.632;4.950;2024-02-21T09:02:39;9.10;1.00
21331;DHT22;10824;51.632;4.950;2024-02-21T09:05:07;9.10;1.00
21331;DHT22;10824;51.632;4.950;2024-02-21T09:07:35;9.10;1.00
21331;DHT22;10824;51.632;4.950;2024-02-21T09:10:02;9.10;1.00
21331;DHT22;10824;51.632;4.950;2024-02-21T09:12:30;9.10;1.00
21331;DHT22;10824;51.632;4.950;2024-02-21T09:14:57;9.10;99.90
21331;DHT22;10824;51.632;4.950;2024-02-21T09:17:24;9.20;99.90
21331;DHT22;10824;51.632;4.950;2024-02-21T09:19:52;9.20;99.90
21331;DHT22;10824;51.632;4.950;2024-02-21T09:22:19;9.30;99.90
21331;DHT22;10824;51.632;4.950;2024-02-21T09:24:46;9.30;99.90
21331;DHT22;10824;51.632;4.950;2024-02-21T09:27:14;9.30;99.90
21331;DHT22;10824;51.632;4.950;2024-02-21T09:29:41;9.40;99.90
21331;DHT22;10824;51.632;4.950;2024-02-21T09:32:08;9.40;99.90
21331;DHT22;10824;51.632;4.950;2024-02-21T09:34:35;9.40;99.90
21331;DHT22;10824;51.632;4.950;2024-02-21T09:37:03;9.40;99.90
21331;DHT22;10824;51.632;4.950;2024-02-21T09:39:30;9.40;1.00
21331;DHT22;10824;51.632;4.950;2024-02-21T09:42:02;9.40;1.00
21331;DHT22;10824;51.632;4.950;2024-02-21T09:44:36;9.40;1.00
21331;DHT22;10824;51.632;4.950;2024-02-21T09:47:11;9.40;99.90
21331;DHT22;10824;51.632;4.950;2024-02-21T09:49:40;9.30;99.90
21331;DHT22;10824;51.632;4.950;2024-02-21T09:52:09;9.40;99.90
21331;DHT22;10824;51.632;4.950;2024-02-21T09:54:37;9.40;99.90
21331;DHT22;10824;51.632;4.950;2024-02-21T09:57:05;9.40;1.00
21331;DHT22;10824;51.632;4.950;2024-02-21T09:59:33;9.50;1.00
21331;DHT22;10824;51.632;4.950;2024-02-21T10:02:00;9.50;1.00
21331;DHT22;10824;51.632;4.950;2024-02-21T10:04:29;9.50;1.00
21331;DHT22;10824;51.632;4.950;2024-02-21T10:06:57;9.50;1.00
21331;DHT22;10824;51.632;4.950;2024-02-21T10:09:28;9.50;1.00
21331;DHT22;10824;51.632;4.950;2024-02-21T10:12:10;9.50;1.00
21331;DHT22;10824;51.632;4.950;2024-02-21T10:14:38;9.50;1.00
21331;DHT22;10824;51.632;4.950;2024-02-21T10:17:06;9.50;52.40
21331;DHT22;10824;51.632;4.950;2024-02-21T10:19:38;9.50;99.90
21331;DHT22;10824;51.632;4.950;2024-02-21T10:22:08;9.50;99.90
21331;DHT22;10824;51.632;4.950;2024-02-21T10:24:36;9.40;1.00
21331;DHT22;10824;51.632;4.950;2024-02-21T10:27:10;9.40;1.00
21331;DHT22;10824;51.632;4.950;2024-02-21T10:29:39;9.60;65.50
21331;DHT22;10824;51.632;4.950;2024-02-21T10:32:11;9.60;1.00
21331;DHT22;10824;51.632;4.950;2024-02-21T10:34:40;9.60;1.00
21331;DHT22;10824;51.632;4.950;2024-02-21T10:37:09;9.70;1.00
21331;DHT22;10824;51.632;4.950;2024-02-21T10:39:38;9.70;99.90
21331;DHT22;10824;51.632;4.950;2024-02-21T10:42:06;9.70;99.90
21331;DHT22;10824;51.632;4.950;2024-02-21T10:44:37;9.70;99.90
21331;DHT22;10824;51.632;4.950;2024-02-21T10:47:09;9.70;1.00
21331;DHT22;10824;51.632;4.950;2024-02-21T10:49:39;9.70;1.00
21331;DHT22;10824;51.632;4.950;2024-02-21T10:52:36;9.60;1.00
21331;DHT22;10824;51.632;4.950;2024-02-21T10:55:24;9.60;1.00
21331;DHT22;10824;51.632;4.950;2024-02-21T10:57:54;9.60;99.90
21331;DHT22;10824;51.632;4.950;2024-02-21T11:00:21;9.60;99.90
21331;DHT22;10824;51.632;4.950;2024-02-21T11:02:52;9.60;99.90
21331;DHT22;10824;51.632;4.950;2024-02-21T11:05:19;9.70;99.90
21331;DHT22;10824;51.632;4.950;2024-02-21T11:07:46;9.70;1.00
21331;DHT22;10824;51.632;4.950;2024-02-21T11:10:24;9.80;99.90
21331;DHT22;10824;51.632;4.950;2024-02-21T11:13:12;9.80;99.90
21331;DHT22;10824;51.632;4.950;2024-02-21T11:15:40;9.90;1.00
21331;DHT22;10824;51.632;4.950;2024-02-21T11:18:07;10.10;1.00
21331;DHT22;10824;51.632;4.950;2024-02-21T11:20:38;10.10;1.00
21331;DHT22;10824;51.632;4.950;2024-02-21T11:23:05;10.10;99.90
21331;DHT22;10824;51.632;4.950;2024-02-21T11:25:33;10.10;99.90
21331;DHT22;10824;51.632;4.950;2024-02-21T11:28:03;10.20;99.90
21331;DHT22;10824;51.632;4.950;2024-02-21T11:30:31;10.20;99.90
21331;DHT22;10824;51.632;4.950;2024-02-21T11:33:03;10.20;99.90
21331;DHT22;10824;51.632;4.950;2024-02-21T11:35:34;10.20;72.60
21331;DHT22;10824;51.632;4.950;2024-02-21T11:38:12;10.30;3.40
21331;DHT22;10824;51.632;4.950;2024-02-21T11:40:45;10.40;5.20
21331;DHT22;10824;51.632;4.950;2024-02-21T11:43:12;10.50;1.00
21331;DHT22;10824;51.632;4.950;2024-02-21T11:45:39;10.60;1.00
21331;DHT22;10824;51.632;4.950;2024-02-21T11:48:07;10.50;1.00
21331;DHT22;10824;51.632;4.950;2024-02-21T11:50:35;10.50;1.00
21331;DHT22;10824;51.632;4.950;2024-02-21T11:53:03;10.50;99.90
21331;DHT22;10824;51.632;4.950;2024-02-21T11:55:31;10.50;99.90
21331;DHT22;10824;51.632;4.950;2024-02-21T11:57:58;10.60;99.90
21331;DHT22;10824;51.632;4.950;2024-02-21T12:00:25;10.60;99.90
21331;DHT22;10824;51.632;4.950;2024-02-21T12:02:53;10.70;99.90
21331;DHT22;10824;51.632;4.950;2024-02-21T12:05:22;10.70;99.90
21331;DHT22;10824;51.632;4.950;2024-02-21T12:07:49;10.80;99.90
21331;DHT22;10824;51.632;4.950;2024-02-21T12:10:17;10.80;99.90
21331;DHT22;10824;51.632;4.950;2024-02-21T12:12:44;10.80;99.90
21331;DHT22;10824;51.632;4.950;2024-02-21T12:15:11;10.80;99.90
21331;DHT22;10824;51.632;4.950;2024-02-21T12:17:39;10.80;99.90
21331;DHT22;10824;51.632;4.950;2024-02-21T12:20:09;10.80;99.90
21331;DHT22;10824;51.632;4.950;2024-02-21T12:22:37;10.70;99.90
21331;DHT22;10824;51.632;4.950;2024-02-21T12:25:16;10.70;99.90
21331;DHT22;10824;51.632;4.950;2024-02-21T12:27:46;10.80;99.90
21331;DHT22;10824;51.632;4.950;2024-02-21T12:30:13;10.80;99.90
21331;DHT22;10824;51.632;4.950;2024-02-21T12:32:40;10.80;93.00
21331;DHT22;10824;51.632;4.950;2024-02-21T12:35:08;10.80;1.00
21331;DHT22;10824;51.632;4.950;2024-02-21T12:37:36;10.80;1.00
21331;DHT22;10824;51.632;4.950;2024-02-21T12:40:07;10.90;1.00
21331;DHT22;10824;51.632;4.950;2024-02-21T12:42:34;10.90;40.40
21331;DHT22;10824;51.632;4.950;2024-02-21T12:45:02;10.80;49.60
21331;DHT22;10824;51.632;4.950;2024-02-21T12:47:30;10.90;55.60
21331;DHT22;10824;51.632;4.950;2024-02-21T12:49:58;10.90;99.90
21331;DHT22;10824;51.632;4.950;2024-02-21T12:52:25;10.90;1.00
21331;DHT22;10824;51.632;4.950;2024-02-21T12:54:52;10.90;23.10
21331;DHT22;10824;51.632;4.950;2024-02-21T12:57:23;10.90;1.00
21331;DHT22;10824;51.632;4.950;2024-02-21T12:59:54;10.80;1.00
21331;DHT22;10824;51.632;4.950;2024-02-21T13:02:21;10.80;1.00
21331;DHT22;10824;51.632;4.950;2024-02-21T13:04:48;10.90;1.00
21331;DHT22;10824;51.632;4.950;2024-02-21T13:07:16;10.90;1.00
21331;DHT22;10824;51.632;4.950;2024-02-21T13:09:43;10.90;1.00
21331;DHT22;10824;51.632;4.950;2024-02-21T13:12:10;10.90;1.00
21331;DHT22;10824;51.632;4.950;2024-02-21T13:14:37;10.90;1.00
21331;DHT22;10824;51.632;4.950;2024-02-21T13:17:06;10.90;1.00
21331;DHT22;10824;51.632;4.950;2024-02-21T13:19:34;10.90;1.00
21331;DHT22;10824;51.632;4.950;2024-02-21T13:22:01;11.00;1.00
21331;DHT22;10824;51.632;4.950;2024-02-21T13:24:30;10.90;99.90
21331;DHT22;10824;51.632;4.950;2024-02-21T13:26:57;11.00;99.90
21331;DHT22;10824;51.632;4.950;2024-02-21T13:29:24;10.90;99.90
21331;DHT22;10824;51.632;4.950;2024-02-21T13:31:51;10.90;99.90
21331;DHT22;10824;51.632;4.950;2024-02-21T13:34:18;10.90;99.90
21331;DHT22;10824;51.632;4.950;2024-02-21T13:36:46;10.80;99.90
21331;DHT22;10824;51.632;4.950;2024-02-21T13:39:13;10.80;99.90
21331;DHT22;10824;51.632;4.950;2024-02-21T13:41:43;10.80;99.90
21331;DHT22;10824;51.632;4.950;2024-02-21T13:44:11;10.70;99.90
21331;DHT22;10824;51.632;4.950;2024-02-21T13:46:39;10.60;99.90
21331;DHT22;10824;51.632;4.950;2024-02-21T13:49:07;10.60;99.90
21331;DHT22;10824;51.632;4.950;2024-02-21T13:51:35;10.60;99.90
21331;DHT22;10824;51.632;4.950;2024-02-21T13:54:05;10.60;99.90
21331;DHT22;10824;51.632;4.950;2024-02-21T13:56:32;10.60;99.90
21331;DHT22;10824;51.632;4.950;2024-02-21T13:58:59;10.60;99.90
21331;DHT22;10824;51.632;4.950;2024-02-21T14:01:30;10.50;99.90
21331;DHT22;10824;51.632;4.950;2024-02-21T14:03:59;10.50;99.90
21331;DHT22;10824;51.632;4.950;2024-02-21T14:06:26;10.50;99.90
21331;DHT22;10824;51.632;4.950;2024-02-21T14:08:54;10.50;99.90
21331;DHT22;10824;51.632;4.950;2024-02-21T14:11:21;10.50;1.00
21331;DHT22;10824;51.632;4.950;2024-02-21T14:13:48;10.50;1.00
21331;DHT22;10824;51.632;4.950;2024-02-21T14:16:15;10.40;1.00
21331;DHT22;10824;51.632;4.950;2024-02-21T14:18:43;10.40;1.00
21331;DHT22;10824;51.632;4.950;2024-02-21T14:21:10;10.40;99.90
21331;DHT22;10824;51.632;4.950;2024-02-21T14:23:38;10.30;99.90
21331;DHT22;10824;51.632;4.950;2024-02-21T14:26:05;10.30;1.00
21331;DHT22;10824;51.632;4.950;2024-02-21T14:28:33;10.20;1.00
21331;DHT22;10824;51.632;4.950;2024-02-21T14:31:00;10.20;77.40
21331;DHT22;10824;51.632;4.950;2024-02-21T14:33:27;10.20;99.90
21331;DHT22;10824;51.632;4.950;2024-02-21T14:35:55;10.20;1.00
21331;DHT22;10824;51.632;4.950;2024-02-21T14:38:22;10.10;1.00
21331;DHT22;10824;51.632;4.950;2024-02-21T14:40:49;10.00;99.90
21331;DHT22;10824;51.632;4.950;2024-02-21T14:43:16;10.00;1.00
21331;DHT22;10824;51.632;4.950;2024-02-21T14:45:45;9.90;99.90
21331;DHT22;10824;51.632;4.950;2024-02-21T14:48:14;9.90;1.00
21331;DHT22;10824;51.632;4.950;2024-02-21T14:50:42;9.80;99.90
21331;DHT22;10824;51.632;4.950;2024-02-21T14:53:09;9.80;99.90
21331;DHT22;10824;51.632;4.950;2024-02-21T14:55:36;9.70;1.00
21331;DHT22;10824;51.632;4.950;2024-02-21T14:58:08;9.80;1.00
21331;DHT22;10824;51.632;4.950;2024-02-21T15:00:35;9.80;99.90
21331;DHT22;10824;51.632;4.950;2024-02-21T15:03:02;9.70;99.90
21331;DHT22;10824;51.632;4.950;2024-02-21T15:05:29;9.80;99.90
21331;DHT22;10824;51.632;4.950;2024-02-21T15:07:57;9.80;1.00
21331;DHT22;10824;51.632;4.950;2024-02-21T15:10:27;9.80;1.00
21331;DHT22;10824;51.632;4.950;2024-02-21T15:12:54;9.70;19.10
21331;DHT22;10824;51.632;4.950;2024-02-21T15:15:21;9.70;1.00
21331;DHT22;10824;51.632;4.950;2024-02-21T15:17:49;9.60;1.00
21331;DHT22;10824;51.632;4.950;2024-02-21T15:20:17;9.60;93.80
21331;DHT22;10824;51.632;4.950;2024-02-21T15:22:44;9.60;99.90
21331;DHT22;10824;51.632;4.950;2024-02-21T15:25:11;9.70;27.90
21331;DHT22;10824;51.632;4.950;2024-02-21T15:27:42;9.60;99.90
21331;DHT22;10824;51.632;4.950;2024-02-21T15:30:13;9.50;99.90
21331;DHT22;10824;51.632;4.950;2024-02-21T15:32:41;9.60;99.90
21331;DHT22;10824;51.632;4.950;2024-02-21T15:35:11;9.50;1.00
21331;DHT22;10824;51.632;4.950;2024-02-21T15:37:38;9.50;1.00
21331;DHT22;10824;51.632;4.950;2024-02-21T15:40:06;9.40;21.50
21331;DHT22;10824;51.632;4.950;2024-02-21T15:42:36;9.40;99.90
21331;DHT22;10824;51.632;4.950;2024-02-21T15:45:03;9.50;1.00
21331;DHT22;10824;51.632;4.950;2024-02-21T15:47:32;9.40;1.00
21331;DHT22;10824;51.632;4.950;2024-02-21T15:49:59;9.40;1.00
21331;DHT22;10824;51.632;4.950;2024-02-21T15:52:28;9.40;99.90
21331;DHT22;10824;51.632;4.950;2024-02-21T15:54:55;9.40;99.90